Fisterra (A Coruña), Galicia

latitud = 42° 55' 29''N | longitud = 009° 17' 29''W
230 metros sobre el nivel del mar | datos mensuales

Fecha, hora, temperatura, viento dirección y velocidad, humedad y presión.

  • 24-02-2018 08:00:00 | 8.30°C | Norte |7.00 km/h | 64.00% | 978.10 hPa
  • 24-02-2018 07:00:00 | 8.40°C | Noroeste |6.00 km/h | 58.00% | 977.70 hPa
  • 24-02-2018 06:00:00 | 8.60°C | Noroeste |4.00 km/h | 57.00% | 977.50 hPa
  • 24-02-2018 05:00:00 | 8.80°C | Sudeste |5.00 km/h | 55.00% | 977.20 hPa
  • 24-02-2018 04:00:00 | 9.10°C | Sudeste |9.00 km/h | 55.00% | 977.30 hPa
  • 24-02-2018 03:00:00 | 8.80°C | Este |8.00 km/h | 58.00% | 977.40 hPa
  • 24-02-2018 02:00:00 | 8.50°C | Sudeste |8.00 km/h | 61.00% | 977.70 hPa
  • 24-02-2018 01:00:00 | 8.60°C | Sudeste |10.00 km/h | 56.00% | 977.80 hPa
  • 24-02-2018 00:00:00 | 8.30°C | Sudeste |8.00 km/h | 49.00% | 977.80 hPa
  • 23-02-2018 23:00:00 | 8.50°C | Este |10.00 km/h | 56.00% | 978.00 hPa
  • 23-02-2018 22:00:00 | 8.20°C | Este |9.00 km/h | 58.00% | 977.90 hPa
  • 23-02-2018 21:00:00 | 7.90°C | Nordeste |18.00 km/h | 73.00% | 978.10 hPa
  • 23-02-2018 20:00:00 | 8.20°C | Nordeste |6.00 km/h | 66.00% | 978.20 hPa
  • 23-02-2018 19:00:00 | 10.70°C | Sudoeste |6.00 km/h | 60.00% | 978.10 hPa
  • 23-02-2018 18:00:00 | 12.60°C | Sudoeste |9.00 km/h | 52.00% | 977.90 hPa
  • 23-02-2018 17:00:00 | 13.10°C | Sudoeste |12.00 km/h | 52.00% | 978.00 hPa
  • 23-02-2018 16:00:00 | 13.60°C | Sudoeste |10.00 km/h | 49.00% | 978.40 hPa
  • 23-02-2018 15:00:00 | 13.10°C | Sudoeste |12.00 km/h | 58.00% | 978.90 hPa
  • 23-02-2018 14:00:00 | 12.20°C | Sur |13.00 km/h | 62.00% | 979.30 hPa
  • 23-02-2018 13:00:00 | 11.90°C | Sur |14.00 km/h | 63.00% | 979.50 hPa
  • 23-02-2018 12:00:00 | 11.10°C | Sur |17.00 km/h | 66.00% | 979.50 hPa
  • 23-02-2018 11:00:00 | 9.70°C | Sur |23.00 km/h | 70.00% | 979.50 hPa
  • 23-02-2018 10:00:00 | 8.60°C | Sur |24.00 km/h | 77.00% | 979.40 hPa
  • 23-02-2018 09:00:00 | 7.40°C | Sur |25.00 km/h | 72.00% | 979.10 hPa